Time;durP1;ratioP1;P1;durP2;ratioP2;P2;SDS_P1;SDS_P2;PMS_P1;PMS_P2;Temp;Humidity;BMP_temperature;BMP_pressure;BME280_temperature;BME280_humidity;BME280_pressure;Samples;Min_cycle;Max_cycle;Signal;HPM_P1;HPM_P2
2023/06/19 00:01:15;;;;;;;;;;;23.20;96.50;;;;;;5082333;28;19924;-84
2023/06/19 00:03:40;;;;;;;;;;;23.20;97.00;;;;;;5102380;28;19923;-82
2023/06/19 00:06:06;;;;;;;;;;;23.20;97.00;;;;;;5085844;28;19971;-81
2023/06/19 00:08:31;;;;;;;;;;;23.20;96.60;;;;;;5068671;27;19931;-82
2023/06/19 00:10:57;;;;;;;;;;;23.40;96.10;;;;;;5083700;28;19931;-82
2023/06/19 00:13:23;;;;;;;;;;;23.50;96.40;;;;;;5082228;28;19927;-81
2023/06/19 00:15:48;;;;;;;;;;;23.50;95.60;;;;;;5081209;28;19924;-83
2023/06/19 00:18:16;;;;;;;;;;;23.60;95.20;;;;;;5082499;28;19934;-83
2023/06/19 00:20:45;;;;;;;;;;;23.60;94.90;;;;;;5082717;28;20410;-84
2023/06/19 00:23:13;;;;;;;;;;;23.50;95.60;;;;;;5080409;27;19936;-83
2023/06/19 00:25:40;;;;;;;;;;;23.30;95.40;;;;;;5103856;28;20312;-83
2023/06/19 00:28:11;;;;;;;;;;;23.20;96.00;;;;;;5085068;28;20010;-83
2023/06/19 00:30:37;;;;;;;;;;;23.20;95.60;;;;;;5083831;28;19963;-82
2023/06/19 00:33:03;;;;;;;;;;;23.40;95.30;;;;;;5083433;28;20045;-84
2023/06/19 00:35:28;;;;;;;;;;;23.30;95.50;;;;;;5084076;28;19934;-82
2023/06/19 00:37:54;;;;;;;;;;;23.30;95.70;;;;;;5084296;28;20296;-82
2023/06/19 00:40:24;;;;;;;;;;;23.20;95.80;;;;;;5084496;28;19935;-82
2023/06/19 00:42:50;;;;;;;;;;;23.20;95.60;;;;;;5100599;28;19927;-82
2023/06/19 00:45:15;;;;;;;;;;;23.30;95.20;;;;;;5081148;28;19977;-82
2023/06/19 00:47:41;;;;;;;;;;;23.30;95.70;;;;;;5081879;28;20018;-83
2023/06/19 00:50:06;;;;;;;;;;;23.10;96.20;;;;;;5085406;28;19959;-82
2023/06/19 00:52:32;;;;;;;;;;;22.90;96.50;;;;;;5082466;28;20118;-81
2023/06/19 00:54:58;;;;;;;;;;;22.90;96.70;;;;;;5103364;28;19937;-82
2023/06/19 00:57:23;;;;;;;;;;;22.90;96.60;;;;;;5081523;28;19927;-85
2023/06/19 00:59:49;;;;;;;;;;;22.80;96.80;;;;;;5084317;28;20681;-81
2023/06/19 01:02:14;;;;;;;;;;;22.60;97.00;;;;;;5081222;28;19985;-82
2023/06/19 01:04:41;;;;;;;;;;;22.70;97.20;;;;;;5084629;28;19927;-82
2023/06/19 01:07:09;;;;;;;;;;;22.70;97.40;;;;;;5084190;28;20010;-81
2023/06/19 01:09:41;;;;;;;;;;;22.50;97.60;;;;;;5087117;28;19928;-84
2023/06/19 01:12:10;;;;;;;;;;;22.50;97.90;;;;;;5066123;28;20592;-81
2023/06/19 01:14:39;;;;;;;;;;;22.50;98.00;;;;;;5080058;28;20443;-82
2023/06/19 01:17:05;;;;;;;;;;;22.50;98.20;;;;;;5082060;28;20605;-82
2023/06/19 01:19:31;;;;;;;;;;;22.40;98.20;;;;;;5084286;28;19927;-81
2023/06/19 01:21:56;;;;;;;;;;;22.40;98.40;;;;;;5085011;28;19958;-82
2023/06/19 01:24:22;;;;;;;;;;;22.40;98.60;;;;;;5083316;28;19934;-83
2023/06/19 01:26:47;;;;;;;;;;;22.50;98.40;;;;;;5082860;28;19931;-83
2023/06/19 01:29:14;;;;;;;;;;;22.50;98.40;;;;;;5084200;28;19924;-82
2023/06/19 01:31:45;;;;;;;;;;;22.40;98.80;;;;;;5084526;28;19974;-83
2023/06/19 01:34:12;;;;;;;;;;;22.40;98.50;;;;;;5083347;28;19927;-83
2023/06/19 01:36:38;;;;;;;;;;;22.40;98.60;;;;;;5085954;28;19928;-83
2023/06/19 01:39:04;;;;;;;;;;;22.30;99.20;;;;;;5103381;28;19928;-82
2023/06/19 01:41:30;;;;;;;;;;;22.40;99.00;;;;;;5081831;28;19974;-84
2023/06/19 01:43:56;;;;;;;;;;;22.40;98.70;;;;;;5083534;28;20511;-83
2023/06/19 01:46:22;;;;;;;;;;;22.30;99.30;;;;;;5082647;28;19935;-83
2023/06/19 01:48:47;;;;;;;;;;;22.20;99.80;;;;;;5080312;28;21602;-82
2023/06/19 01:51:13;;;;;;;;;;;22.20;99.80;;;;;;5081937;28;19934;-82
2023/06/19 01:53:38;;;;;;;;;;;22.20;99.70;;;;;;5084294;28;19959;-83
2023/06/19 01:56:04;;;;;;;;;;;22.10;99.90;;;;;;5065550;28;19939;-83
2023/06/19 01:58:30;;;;;;;;;;;22.10;99.90;;;;;;5081119;28;19985;-83
2023/06/19 02:00:55;;;;;;;;;;;22.10;99.90;;;;;;5083331;28;19932;-83
2023/06/19 02:03:21;;;;;;;;;;;22.00;99.90;;;;;;5077710;28;19927;-82
2023/06/19 02:05:47;;;;;;;;;;;22.00;99.90;;;;;;5086110;28;20609;-82
2023/06/19 02:08:12;;;;;;;;;;;21.90;99.90;;;;;;5081322;28;19927;-83
2023/06/19 02:10:38;;;;;;;;;;;21.90;99.90;;;;;;5081959;28;19927;-84
2023/06/19 02:13:03;;;;;;;;;;;21.90;99.90;;;;;;5086556;28;19927;-83
2023/06/19 02:15:29;;;;;;;;;;;21.90;99.90;;;;;;5083026;28;20025;-83
2023/06/19 02:17:57;;;;;;;;;;;21.90;99.90;;;;;;5085695;28;19963;-83
2023/06/19 02:20:26;;;;;;;;;;;21.90;99.90;;;;;;5087147;28;19950;-82
2023/06/19 02:22:52;;;;;;;;;;;22.00;99.90;;;;;;5083417;28;20381;-82
2023/06/19 02:25:18;;;;;;;;;;;22.10;99.90;;;;;;5086949;27;19931;-81
2023/06/19 02:27:44;;;;;;;;;;;22.10;99.90;;;;;;5087601;27;19931;-82
2023/06/19 02:30:10;;;;;;;;;;;22.10;99.90;;;;;;5088054;28;19928;-82
2023/06/19 02:32:36;;;;;;;;;;;22.00;99.90;;;;;;5105723;28;19930;-82
2023/06/19 02:35:02;;;;;;;;;;;22.10;99.90;;;;;;5087914;28;19938;-82
2023/06/19 02:37:29;;;;;;;;;;;22.00;99.90;;;;;;5088086;28;19978;-82
2023/06/19 02:39:55;;;;;;;;;;;22.10;99.90;;;;;;5109379;27;20034;-84
2023/06/19 02:42:20;;;;;;;;;;;22.10;99.90;;;;;;5088991;28;20010;-82
2023/06/19 02:44:46;;;;;;;;;;;22.10;99.90;;;;;;5087028;28;20627;-82
2023/06/19 02:47:11;;;;;;;;;;;22.10;99.90;;;;;;5083513;28;19924;-83
2023/06/19 02:49:37;;;;;;;;;;;22.00;99.90;;;;;;5086077;28;21381;-84
2023/06/19 02:52:02;;;;;;;;;;;22.00;99.90;;;;;;5088189;28;20415;-82
2023/06/19 02:54:28;;;;;;;;;;;22.00;99.90;;;;;;5087470;28;20757;-84
2023/06/19 02:56:53;;;;;;;;;;;22.00;99.90;;;;;;5086787;28;20323;-84
2023/06/19 02:59:19;;;;;;;;;;;22.00;99.90;;;;;;5092712;27;20307;-87
2023/06/19 03:01:44;;;;;;;;;;;22.00;99.90;;;;;;5085790;27;20408;-86
2023/06/19 03:04:10;;;;;;;;;;;22.00;99.90;;;;;;5088071;27;20457;-83
2023/06/19 03:06:39;;;;;;;;;;;22.00;99.90;;;;;;5086259;28;20643;-84
2023/06/19 03:09:05;;;;;;;;;;;21.90;99.90;;;;;;5087836;28;19927;-84
2023/06/19 03:11:31;;;;;;;;;;;21.90;99.90;;;;;;5089060;27;19978;-83
2023/06/19 03:13:56;;;;;;;;;;;21.90;99.90;;;;;;5087364;27;19943;-83
2023/06/19 03:16:22;;;;;;;;;;;21.80;99.90;;;;;;5110345;27;19934;-84
2023/06/19 03:18:47;;;;;;;;;;;21.80;99.90;;;;;;5087112;27;20331;-84
2023/06/19 03:21:13;;;;;;;;;;;21.80;99.90;;;;;;5084120;28;19924;-84
2023/06/19 03:23:40;;;;;;;;;;;21.80;99.90;;;;;;5085078;28;19924;-85
2023/06/19 03:26:08;;;;;;;;;;;21.80;99.90;;;;;;5083902;28;19931;-83
2023/06/19 03:28:34;;;;;;;;;;;21.80;99.90;;;;;;5090015;28;19927;-83
2023/06/19 03:31:00;;;;;;;;;;;21.80;99.90;;;;;;5088898;28;20018;-84
2023/06/19 03:33:26;;;;;;;;;;;21.80;99.90;;;;;;5086954;27;19973;-83
2023/06/19 03:35:51;;;;;;;;;;;21.80;99.90;;;;;;5084563;27;19974;-84
2023/06/19 03:38:17;;;;;;;;;;;21.80;99.90;;;;;;5086729;28;19930;-84
2023/06/19 03:40:42;;;;;;;;;;;21.80;99.90;;;;;;5083825;28;19971;-85
2023/06/19 03:43:08;;;;;;;;;;;21.80;99.90;;;;;;5086691;28;19924;-84
2023/06/19 03:45:34;;;;;;;;;;;21.80;99.90;;;;;;5086026;28;19927;-87
2023/06/19 03:47:59;;;;;;;;;;;21.90;99.90;;;;;;5068622;28;19979;-87
2023/06/19 03:50:25;;;;;;;;;;;21.80;99.90;;;;;;5088016;28;19938;-85
2023/06/19 03:52:50;;;;;;;;;;;21.80;99.90;;;;;;5083182;28;20007;-87
2023/06/19 03:55:16;;;;;;;;;;;21.80;99.90;;;;;;5081402;27;19932;-84
2023/06/19 03:57:42;;;;;;;;;;;21.80;99.90;;;;;;5084578;28;20408;-84
2023/06/19 04:00:07;;;;;;;;;;;21.80;99.90;;;;;;5087873;28;19942;-89
2023/06/19 04:02:34;;;;;;;;;;;21.80;99.90;;;;;;5088662;27;19928;-85
2023/06/19 04:04:59;;;;;;;;;;;21.90;99.90;;;;;;5069361;28;19932;-87
2023/06/19 04:07:25;;;;;;;;;;;21.90;99.90;;;;;;5088438;27;19924;-86
2023/06/19 04:09:50;;;;;;;;;;;21.90;99.90;;;;;;5086495;27;20396;-85
2023/06/19 04:12:16;;;;;;;;;;;21.90;99.90;;;;;;5087463;28;21057;-88
2023/06/19 04:14:41;;;;;;;;;;;21.90;99.90;;;;;;5085909;28;20058;-89
2023/06/19 04:17:07;;;;;;;;;;;21.80;99.90;;;;;;5087563;28;20337;-91
2023/06/19 04:19:32;;;;;;;;;;;21.90;99.90;;;;;;5069974;28;20010;-91
2023/06/19 04:21:58;;;;;;;;;;;21.80;99.90;;;;;;5070485;28;19931;-86
2023/06/19 04:24:24;;;;;;;;;;;21.70;99.90;;;;;;5085968;28;19955;-89
2023/06/19 04:26:49;;;;;;;;;;;21.70;99.90;;;;;;5069620;28;20026;-88
2023/06/19 04:29:16;;;;;;;;;;;21.70;99.90;;;;;;5088561;28;19935;-85
2023/06/19 04:31:46;;;;;;;;;;;21.70;99.90;;;;;;5083619;28;19932;-85
2023/06/19 04:34:20;;;;;;;;;;;21.70;99.90;;;;;;5084715;28;20462;-87
2023/06/19 04:36:47;;;;;;;;;;;21.60;99.90;;;;;;5085766;28;19928;-89
2023/06/19 04:39:12;;;;;;;;;;;21.80;99.90;;;;;;5084155;28;19931;-85
2023/06/19 04:41:38;;;;;;;;;;;21.90;99.90;;;;;;5085685;28;20438;-88
2023/06/19 04:44:07;;;;;;;;;;;22.20;99.90;;;;;;5086320;28;19930;-86
2023/06/19 04:46:33;;;;;;;;;;;22.00;99.90;;;;;;5087525;28;20018;-91
2023/06/19 04:48:58;;;;;;;;;;;22.00;99.90;;;;;;5086490;27;19939;-85
2023/06/19 04:51:26;;;;;;;;;;;22.10;99.90;;;;;;5084520;27;19963;-88
2023/06/19 04:53:51;;;;;;;;;;;22.30;99.90;;;;;;5070460;28;20573;-88
2023/06/19 04:56:17;;;;;;;;;;;22.00;99.90;;;;;;5083276;28;19935;-83
2023/06/19 04:58:46;;;;;;;;;;;22.30;99.90;;;;;;5083018;28;20293;-89
2023/06/19 05:01:12;;;;;;;;;;;22.20;99.90;;;;;;5074706;28;19978;-87
2023/06/19 05:03:38;;;;;;;;;;;22.00;99.90;;;;;;5080372;28;20038;-85
2023/06/19 05:06:03;;;;;;;;;;;21.90;99.90;;;;;;5083619;28;20471;-82
2023/06/19 05:08:29;;;;;;;;;;;21.70;99.90;;;;;;5087290;28;20369;-84
2023/06/19 05:10:54;;;;;;;;;;;21.60;99.90;;;;;;5086470;28;19934;-86
2023/06/19 05:13:20;;;;;;;;;;;21.40;99.90;;;;;;5112424;28;20087;-87
2023/06/19 05:15:45;;;;;;;;;;;21.40;99.90;;;;;;5086633;28;20447;-87
2023/06/19 05:18:11;;;;;;;;;;;21.40;99.90;;;;;;5085929;28;19959;-84
2023/06/19 05:20:36;;;;;;;;;;;21.50;99.90;;;;;;5085964;28;20411;-84
2023/06/19 05:23:02;;;;;;;;;;;21.40;99.90;;;;;;5085124;28;20390;-85
2023/06/19 05:25:28;;;;;;;;;;;21.30;99.90;;;;;;5086984;28;20380;-83
2023/06/19 05:27:53;;;;;;;;;;;21.50;99.90;;;;;;5087438;28;19977;-84
2023/06/19 05:30:19;;;;;;;;;;;22.00;99.90;;;;;;5088039;28;19927;-90
2023/06/19 05:32:44;;;;;;;;;;;23.50;99.90;;;;;;5087366;28;19935;-87
2023/06/19 05:35:10;;;;;;;;;;;23.40;99.90;;;;;;5087847;28;19934;-84
2023/06/19 05:37:35;;;;;;;;;;;24.50;99.90;;;;;;5084421;28;19924;-86
2023/06/19 05:40:01;;;;;;;;;;;24.30;99.90;;;;;;5113611;27;20016;-82
2023/06/19 05:42:26;;;;;;;;;;;24.80;99.90;;;;;;5086966;28;20006;-82
2023/06/19 05:44:52;;;;;;;;;;;24.70;99.90;;;;;;5092218;27;19932;-86
2023/06/19 05:47:20;;;;;;;;;;;24.70;99.90;;;;;;5083792;27;19931;-83
2023/06/19 05:49:45;;;;;;;;;;;23.70;99.90;;;;;;5111201;27;20284;-85
2023/06/19 05:52:11;;;;;;;;;;;23.40;99.90;;;;;;5086680;28;19928;-80
2023/06/19 05:54:36;;;;;;;;;;;23.30;99.90;;;;;;5085899;27;19932;-82
2023/06/19 05:57:02;;;;;;;;;;;23.30;99.90;;;;;;5085372;28;19982;-81
2023/06/19 05:59:27;;;;;;;;;;;23.20;99.90;;;;;;5088717;27;19924;-85
2023/06/19 06:01:53;;;;;;;;;;;23.40;99.90;;;;;;5084437;28;19939;-82
2023/06/19 06:04:21;;;;;;;;;;;23.30;99.90;;;;;;5089856;28;19931;-83
2023/06/19 06:06:47;;;;;;;;;;;23.10;99.90;;;;;;5090236;28;20444;-81
2023/06/19 06:09:13;;;;;;;;;;;23.00;99.90;;;;;;5091586;28;19934;-84
2023/06/19 06:11:38;;;;;;;;;;;23.10;99.90;;;;;;5088815;28;19931;-82
2023/06/19 06:14:04;;;;;;;;;;;23.30;99.90;;;;;;5083015;28;20427;-85
2023/06/19 06:16:29;;;;;;;;;;;23.10;99.90;;;;;;5090382;28;20062;-83
2023/06/19 06:18:55;;;;;;;;;;;22.80;99.90;;;;;;5084526;27;19932;-86
2023/06/19 06:21:20;;;;;;;;;;;22.70;99.90;;;;;;5085268;28;19923;-81
2023/06/19 06:23:47;;;;;;;;;;;22.60;99.90;;;;;;5089502;27;19935;-85
2023/06/19 06:26:13;;;;;;;;;;;22.60;99.90;;;;;;5089540;28;20038;-86
2023/06/19 06:28:39;;;;;;;;;;;22.50;99.90;;;;;;5087668;28;20293;-88
2023/06/19 06:31:04;;;;;;;;;;;22.60;99.90;;;;;;5087339;28;19934;-88
2023/06/19 06:33:30;;;;;;;;;;;22.60;99.90;;;;;;5070265;28;20285;-88
2023/06/19 06:35:57;;;;;;;;;;;22.50;99.90;;;;;;5089349;28;19932;-87
2023/06/19 06:38:23;;;;;;;;;;;22.40;99.90;;;;;;5089609;28;19931;-85
2023/06/19 06:40:48;;;;;;;;;;;22.50;99.90;;;;;;5091438;27;20315;-86
2023/06/19 06:43:14;;;;;;;;;;;22.50;99.90;;;;;;5094743;27;19934;-89
2023/06/19 06:45:42;;;;;;;;;;;22.30;99.90;;;;;;5085828;28;19985;-86
2023/06/19 06:48:07;;;;;;;;;;;22.40;99.90;;;;;;5091020;28;19931;-86
2023/06/19 06:50:33;;;;;;;;;;;22.40;99.90;;;;;;5089388;28;21019;-88
2023/06/19 06:52:58;;;;;;;;;;;22.30;99.90;;;;;;5093339;27;19927;-86
2023/06/19 06:55:24;;;;;;;;;;;22.40;99.90;;;;;;5088335;28;19962;-87
2023/06/19 06:57:49;;;;;;;;;;;22.50;99.90;;;;;;5089162;28;19943;-86
2023/06/19 07:00:15;;;;;;;;;;;22.60;99.90;;;;;;5072637;28;19936;-87
2023/06/19 07:02:41;;;;;;;;;;;22.50;99.90;;;;;;5090528;27;20018;-86
2023/06/19 07:05:07;;;;;;;;;;;22.50;99.90;;;;;;5089634;28;19924;-88
2023/06/19 07:07:35;;;;;;;;;;;22.60;99.90;;;;;;5073461;28;20182;-89
2023/06/19 07:10:01;;;;;;;;;;;22.60;99.90;;;;;;5089553;28;19928;-88
2023/06/19 07:12:26;;;;;;;;;;;22.50;99.90;;;;;;5072990;28;19924;-82
2023/06/19 07:14:55;;;;;;;;;;;22.60;99.90;;;;;;5114474;27;19931;-88
2023/06/19 07:17:21;;;;;;;;;;;22.70;99.90;;;;;;5091800;27;19930;-80
2023/06/19 07:19:46;;;;;;;;;;;22.80;99.90;;;;;;5090593;27;19927;-86
2023/06/19 07:22:12;;;;;;;;;;;22.90;99.90;;;;;;5090281;28;19950;-90
2023/06/19 07:24:37;;;;;;;;;;;23.20;99.90;;;;;;5085501;28;19927;-85
2023/06/19 07:27:03;;;;;;;;;;;23.30;99.90;;;;;;5083141;28;19939;-88
2023/06/19 07:29:29;;;;;;;;;;;23.20;99.90;;;;;;5089547;27;20010;-87
2023/06/19 07:31:55;;;;;;;;;;;23.00;99.90;;;;;;5071166;27;19947;-88
2023/06/19 07:34:21;;;;;;;;;;;23.10;99.90;;;;;;5075086;27;19928;-91
2023/06/19 07:36:47;;;;;;;;;;;22.90;99.90;;;;;;5089378;28;19950;-86
2023/06/19 07:39:12;;;;;;;;;;;22.80;99.90;;;;;;5089020;28;19928;-86
2023/06/19 07:41:38;;;;;;;;;;;22.60;99.90;;;;;;5090657;27;19934;-86
2023/06/19 07:44:03;;;;;;;;;;;22.50;99.90;;;;;;5089253;27;20002;-88
2023/06/19 07:46:29;;;;;;;;;;;22.60;99.90;;;;;;5091877;28;19982;-87
2023/06/19 07:48:54;;;;;;;;;;;22.80;99.90;;;;;;5088615;28;19928;-83
2023/06/19 07:51:20;;;;;;;;;;;22.80;99.90;;;;;;5093417;27;19928;-91
2023/06/19 07:53:46;;;;;;;;;;;23.00;99.90;;;;;;5071997;28;20406;-85
2023/06/19 07:56:11;;;;;;;;;;;23.50;99.90;;;;;;5073957;28;19939;-88
2023/06/19 07:58:37;;;;;;;;;;;23.50;99.90;;;;;;5072058;28;19931;-87
2023/06/19 08:01:03;;;;;;;;;;;23.50;99.90;;;;;;5088978;27;20372;-89
2023/06/19 08:03:28;;;;;;;;;;;23.70;99.90;;;;;;5083469;28;19935;-86
2023/06/19 08:05:54;;;;;;;;;;;23.50;99.90;;;;;;5084941;27;19927;-89
2023/06/19 08:08:19;;;;;;;;;;;23.20;99.90;;;;;;5069698;28;19928;-91
2023/06/19 08:10:45;;;;;;;;;;;22.90;99.90;;;;;;5068108;28;19974;-82
2023/06/19 08:13:11;;;;;;;;;;;22.70;99.90;;;;;;5087184;28;19927;-87
2023/06/19 08:15:37;;;;;;;;;;;22.40;99.90;;;;;;5088588;28;19980;-87
2023/06/19 08:18:02;;;;;;;;;;;22.30;99.90;;;;;;5072702;28;19936;-88
2023/06/19 08:20:28;;;;;;;;;;;22.20;99.90;;;;;;5087799;28;19967;-85
2023/06/19 08:22:53;;;;;;;;;;;22.20;99.90;;;;;;5085787;28;19923;-91
2023/06/19 08:25:19;;;;;;;;;;;22.10;99.90;;;;;;5088243;28;19932;-87
2023/06/19 08:27:47;;;;;;;;;;;22.10;99.90;;;;;;5088873;28;19930;-84
2023/06/19 08:30:13;;;;;;;;;;;22.20;99.90;;;;;;5088184;28;19924;-89
2023/06/19 08:32:39;;;;;;;;;;;22.10;99.90;;;;;;5087562;28;20266;-87
2023/06/19 08:35:04;;;;;;;;;;;22.40;99.90;;;;;;5090135;27;19928;-86
2023/06/19 08:37:30;;;;;;;;;;;22.50;99.90;;;;;;5089599;27;19981;-87
2023/06/19 08:39:56;;;;;;;;;;;22.60;99.90;;;;;;5087232;28;19981;-86
2023/06/19 08:42:22;;;;;;;;;;;22.70;99.90;;;;;;5084311;28;19931;-90
2023/06/19 08:44:50;;;;;;;;;;;22.50;99.90;;;;;;5087109;28;20330;-88
2023/06/19 08:47:15;;;;;;;;;;;22.60;99.90;;;;;;5087956;28;19959;-90
2023/06/19 08:49:41;;;;;;;;;;;22.50;99.90;;;;;;5088110;28;19928;-87
2023/06/19 08:52:07;;;;;;;;;;;22.80;99.90;;;;;;5085839;28;20350;-90
2023/06/19 08:54:33;;;;;;;;;;;22.80;99.90;;;;;;5087563;28;19953;-87
2023/06/19 08:57:02;;;;;;;;;;;22.90;99.90;;;;;;5087126;28;19928;-89
2023/06/19 08:59:31;;;;;;;;;;;22.70;99.90;;;;;;5086596;28;19927;-85
2023/06/19 09:01:57;;;;;;;;;;;22.80;99.90;;;;;;5067986;28;19975;-84
2023/06/19 09:04:26;;;;;;;;;;;22.60;99.90;;;;;;5070654;28;20032;-86
2023/06/19 09:06:52;;;;;;;;;;;22.40;99.90;;;;;;5087298;28;20385;-84
2023/06/19 09:09:20;;;;;;;;;;;22.20;99.90;;;;;;5087709;28;19931;-87
2023/06/19 09:12:05;;;;;;;;;;;22.00;99.90;;;;;;5088723;28;20376;-86
2023/06/19 09:14:34;;;;;;;;;;;21.90;99.90;;;;;;5091804;27;19927;-85
2023/06/19 09:17:01;;;;;;;;;;;21.90;99.90;;;;;;5110048;27;20393;-83
2023/06/19 09:19:26;;;;;;;;;;;21.90;99.90;;;;;;5091671;28;20392;-89
2023/06/19 09:21:52;;;;;;;;;;;22.00;99.90;;;;;;5088058;28;19935;-85
2023/06/19 09:24:17;;;;;;;;;;;22.20;99.90;;;;;;5092892;27;20081;-86
2023/06/19 09:26:43;;;;;;;;;;;22.60;99.90;;;;;;5090489;28;20023;-86
2023/06/19 09:29:10;;;;;;;;;;;23.10;99.90;;;;;;5091299;28;19928;-87
2023/06/19 09:31:37;;;;;;;;;;;23.10;99.90;;;;;;5091531;28;20012;-87
2023/06/19 09:34:03;;;;;;;;;;;23.40;99.90;;;;;;5092468;28;19927;-90
2023/06/19 09:36:30;;;;;;;;;;;23.90;99.90;;;;;;5091653;28;20425;-88
2023/06/19 09:38:56;;;;;;;;;;;24.40;99.90;;;;;;5092292;28;20046;-88
2023/06/19 09:41:23;;;;;;;;;;;24.50;99.90;;;;;;5092836;27;19945;-86
2023/06/19 09:43:49;;;;;;;;;;;24.60;99.90;;;;;;5094252;28;19923;-89
2023/06/19 09:46:16;;;;;;;;;;;24.30;99.90;;;;;;5090572;28;19999;-87
2023/06/19 09:48:43;;;;;;;;;;;23.90;99.90;;;;;;5092934;27;19938;-87
2023/06/19 09:51:15;;;;;;;;;;;23.50;99.90;;;;;;5090042;28;19927;-86
2023/06/19 09:53:43;;;;;;;;;;;23.50;99.90;;;;;;5091180;28;19935;-84
2023/06/19 09:56:08;;;;;;;;;;;23.70;99.90;;;;;;5089597;28;20308;-88
2023/06/19 09:58:34;;;;;;;;;;;24.60;99.90;;;;;;5090846;28;19928;-89
2023/06/19 10:01:01;;;;;;;;;;;24.70;99.90;;;;;;5089523;28;19924;-87
2023/06/19 10:03:46;;;;;;;;;;;25.40;99.90;;;;;;5085255;28;19927;-87
2023/06/19 10:06:16;;;;;;;;;;;25.90;99.90;;;;;;5086073;28;20615;-86
2023/06/19 10:08:43;;;;;;;;;;;26.30;99.90;;;;;;5073963;28;19932;-88
2023/06/19 10:11:09;;;;;;;;;;;26.20;99.90;;;;;;5080825;28;19924;-88
2023/06/19 10:13:36;;;;;;;;;;;25.60;99.90;;;;;;5089473;28;19928;-86
2023/06/19 10:16:02;;;;;;;;;;;25.30;99.90;;;;;;5088968;28;19928;-85
2023/06/19 10:18:28;;;;;;;;;;;25.40;99.90;;;;;;5072221;28;20080;-86
2023/06/19 10:20:54;;;;;;;;;;;25.60;99.90;;;;;;5086145;27;19927;-89
2023/06/19 10:23:22;;;;;;;;;;;25.70;99.90;;;;;;5087871;28;20330;-92
2023/06/19 10:25:58;;;;;;;;;;;25.60;99.90;;;;;;5089132;28;19930;-87
2023/06/19 10:28:31;;;;;;;;;;;25.70;99.90;;;;;;5086726;28;20372;-88
2023/06/19 10:30:58;;;;;;;;;;;25.70;99.90;;;;;;5089195;28;19923;-89
2023/06/19 10:33:25;;;;;;;;;;;25.70;99.90;;;;;;5080585;27;20584;-85
2023/06/19 10:35:51;;;;;;;;;;;25.60;99.90;;;;;;5089562;28;19928;-86
2023/06/19 10:38:17;;;;;;;;;;;25.40;99.90;;;;;;5068922;28;19924;-85
2023/06/19 10:40:44;;;;;;;;;;;25.50;99.90;;;;;;5090040;27;20387;-86
2023/06/19 10:43:10;;;;;;;;;;;25.50;99.90;;;;;;5072217;28;20058;-87
2023/06/19 10:45:35;;;;;;;;;;;25.60;99.90;;;;;;5073131;28;20007;-89
2023/06/19 10:48:05;;;;;;;;;;;25.50;99.90;;;;;;5088140;28;19928;-86
2023/06/19 10:50:35;;;;;;;;;;;25.40;99.90;;;;;;5087803;28;19930;-88
2023/06/19 10:53:01;;;;;;;;;;;25.20;99.90;;;;;;5089658;28;19970;-89
2023/06/19 10:55:26;;;;;;;;;;;25.70;99.90;;;;;;5089113;28;19927;-90
2023/06/19 10:57:52;;;;;;;;;;;26.00;99.90;;;;;;5088459;28;20372;-85
2023/06/19 11:00:25;;;;;;;;;;;26.00;99.90;;;;;;5088473;27;19939;-88
2023/06/19 11:02:50;;;;;;;;;;;26.60;99.90;;;;;;5088395;28;19928;-87
2023/06/19 11:05:16;;;;;;;;;;;26.40;99.90;;;;;;5087963;28;19981;-88
2023/06/19 11:07:42;;;;;;;;;;;26.50;99.90;;;;;;5089500;28;19924;-87
2023/06/19 11:10:07;;;;;;;;;;;27.00;99.90;;;;;;5088370;28;19924;-88
2023/06/19 11:12:34;;;;;;;;;;;27.10;99.90;;;;;;5087908;28;19935;-86
2023/06/19 11:15:02;;;;;;;;;;;27.30;99.90;;;;;;5087672;28;20010;-88
2023/06/19 11:17:28;;;;;;;;;;;27.50;99.90;;;;;;5071936;28;19928;-88
2023/06/19 11:19:56;;;;;;;;;;;27.90;99.90;;;;;;5070789;28;19931;-84
2023/06/19 11:22:21;;;;;;;;;;;28.00;99.90;;;;;;5087921;28;19931;-88
2023/06/19 11:24:48;;;;;;;;;;;27.10;99.90;;;;;;5088442;28;19943;-89
2023/06/19 11:27:18;;;;;;;;;;;27.50;99.90;;;;;;5087423;28;19932;-87
2023/06/19 11:29:47;;;;;;;;;;;27.50;99.90;;;;;;5105157;28;19927;-86
2023/06/19 11:32:13;;;;;;;;;;;27.80;99.90;;;;;;5085339;28;19973;-87
2023/06/19 11:34:39;;;;;;;;;;;28.20;99.90;;;;;;5088066;28;19923;-86
2023/06/19 11:37:11;;;;;;;;;;;28.30;99.90;;;;;;5090287;28;19938;-86
2023/06/19 11:39:37;;;;;;;;;;;28.40;99.90;;;;;;5088073;28;19928;-85
2023/06/19 11:42:03;;;;;;;;;;;28.00;99.90;;;;;;5087589;28;19927;-85
2023/06/19 11:44:28;;;;;;;;;;;27.70;99.90;;;;;;5087622;28;19930;-86
2023/06/19 11:47:00;;;;;;;;;;;27.40;99.90;;;;;;5084358;28;19932;-86
2023/06/19 11:49:26;;;;;;;;;;;27.60;99.90;;;;;;5087166;27;20417;-86
2023/06/19 11:51:51;;;;;;;;;;;28.20;99.90;;;;;;5085173;28;19924;-85
2023/06/19 11:54:20;;;;;;;;;;;28.20;99.90;;;;;;5087101;28;20014;-87
2023/06/19 11:56:47;;;;;;;;;;;27.70;99.90;;;;;;5073123;28;20031;-92
2023/06/19 11:59:14;;;;;;;;;;;27.90;99.90;;;;;;5089568;27;19935;-85
2023/06/19 12:01:39;;;;;;;;;;;27.60;99.90;;;;;;5066630;28;19924;-87
2023/06/19 12:04:05;;;;;;;;;;;27.40;99.90;;;;;;5086150;28;19931;-86
2023/06/19 12:06:31;;;;;;;;;;;27.70;99.90;;;;;;5085192;28;20018;-86
2023/06/19 12:08:56;;;;;;;;;;;27.00;99.90;;;;;;5085131;28;19981;-87
2023/06/19 12:11:22;;;;;;;;;;;27.20;99.90;;;;;;5084115;28;19939;-89
2023/06/19 12:13:48;;;;;;;;;;;27.20;99.90;;;;;;5086382;28;20456;-86
2023/06/19 12:16:13;;;;;;;;;;;26.90;99.90;;;;;;5084728;28;19934;-88
2023/06/19 12:18:39;;;;;;;;;;;26.50;99.90;;;;;;5085320;28;19970;-88
2023/06/19 12:21:05;;;;;;;;;;;26.90;99.90;;;;;;5087101;28;20046;-86
2023/06/19 12:23:30;;;;;;;;;;;27.10;99.90;;;;;;5086532;28;19932;-88
2023/06/19 12:25:56;;;;;;;;;;;27.10;99.90;;;;;;5085495;28;20299;-90
2023/06/19 12:28:22;;;;;;;;;;;27.20;99.90;;;;;;5073030;28;20126;-90
2023/06/19 12:30:51;;;;;;;;;;;26.80;99.90;;;;;;5091526;28;20399;-88
2023/06/19 12:33:17;;;;;;;;;;;26.80;99.90;;;;;;5087364;28;19974;-87
2023/06/19 12:35:43;;;;;;;;;;;26.50;99.90;;;;;;5072648;28;19928;-90
2023/06/19 12:38:09;;;;;;;;;;;26.80;99.90;;;;;;5069910;28;19946;-89
2023/06/19 12:40:36;;;;;;;;;;;26.50;99.90;;;;;;5087360;28;19936;-90
2023/06/19 12:43:01;;;;;;;;;;;26.30;99.90;;;;;;5086404;28;20400;-89
2023/06/19 12:45:27;;;;;;;;;;;26.40;99.90;;;;;;5087573;28;19939;-87
2023/06/19 12:47:52;;;;;;;;;;;26.70;99.90;;;;;;5085945;28;19932;-88
2023/06/19 12:50:18;;;;;;;;;;;26.80;99.90;;;;;;5087200;28;19974;-88
2023/06/19 12:52:43;;;;;;;;;;;26.90;99.90;;;;;;5086834;28;20518;-92
2023/06/19 12:55:09;;;;;;;;;;;27.10;99.90;;;;;;5089414;28;20464;-87
2023/06/19 12:57:34;;;;;;;;;;;27.50;99.90;;;;;;5088749;27;19984;-86
2023/06/19 13:00:00;;;;;;;;;;;27.70;99.90;;;;;;5091322;28;19924;-88
2023/06/19 13:02:26;;;;;;;;;;;27.40;99.90;;;;;;5086181;28;20293;-90
2023/06/19 13:04:51;;;;;;;;;;;27.80;99.90;;;;;;5087813;28;20034;-92
2023/06/19 13:07:17;;;;;;;;;;;27.90;99.90;;;;;;5068230;28;19932;-88
2023/06/19 13:09:43;;;;;;;;;;;28.20;99.90;;;;;;5089386;28;20443;-89
2023/06/19 13:12:08;;;;;;;;;;;28.50;99.90;;;;;;5069073;28;20392;-87
2023/06/19 13:14:34;;;;;;;;;;;28.70;99.90;;;;;;5083412;28;19954;-88
2023/06/19 13:16:59;;;;;;;;;;;28.60;99.90;;;;;;5085041;28;19924;-87
2023/06/19 13:19:25;;;;;;;;;;;28.10;99.90;;;;;;5080802;28;19927;-90
2023/06/19 13:21:51;;;;;;;;;;;27.80;99.90;;;;;;5078608;28;19939;-88
2023/06/19 13:24:16;;;;;;;;;;;27.60;99.90;;;;;;5084972;28;19927;-87
2023/06/19 13:26:42;;;;;;;;;;;27.90;99.90;;;;;;5084747;28;19956;-88
2023/06/19 13:29:08;;;;;;;;;;;27.80;99.90;;;;;;5076608;28;19976;-87
2023/06/19 13:31:33;;;;;;;;;;;28.20;99.90;;;;;;5083850;28;19924;-87
2023/06/19 13:33:59;;;;;;;;;;;28.70;99.90;;;;;;5081411;28;19932;-86
2023/06/19 13:36:26;;;;;;;;;;;28.60;99.90;;;;;;5085656;28;19985;-86
2023/06/19 13:38:52;;;;;;;;;;;28.40;99.90;;;;;;5086769;28;19938;-89
2023/06/19 13:41:18;;;;;;;;;;;27.90;99.90;;;;;;5086573;28;19928;-92
2023/06/19 13:43:45;;;;;;;;;;;28.40;99.90;;;;;;5084364;28;19928;-87
2023/06/19 13:46:11;;;;;;;;;;;28.90;99.90;;;;;;5085084;28;19959;-85
2023/06/19 13:48:37;;;;;;;;;;;28.60;99.90;;;;;;5068767;28;19927;-87
2023/06/19 13:51:02;;;;;;;;;;;29.00;99.90;;;;;;5073153;28;19932;-87
2023/06/19 13:53:31;;;;;;;;;;;28.80;99.30;;;;;;5078984;28;19951;-87
2023/06/19 13:55:56;;;;;;;;;;;29.20;99.10;;;;;;5084144;28;19932;-87
2023/06/19 13:58:22;;;;;;;;;;;28.90;98.70;;;;;;5085248;28;19935;-87
2023/06/19 14:00:47;;;;;;;;;;;28.70;98.50;;;;;;5086699;28;19927;-88
2023/06/19 14:03:13;;;;;;;;;;;28.50;98.20;;;;;;5087662;28;19928;-87
2023/06/19 14:05:39;;;;;;;;;;;28.00;98.20;;;;;;5094077;28;19932;-87
2023/06/19 14:08:05;;;;;;;;;;;27.80;98.50;;;;;;5105173;28;20062;-87
2023/06/19 14:10:30;;;;;;;;;;;27.50;98.80;;;;;;5070283;28;20448;-87